Time;durP1;ratioP1;P1;durP2;ratioP2;P2;SDS_P1;SDS_P2;PMS_P1;PMS_P2;Temp;Humidity;BMP_temperature;BMP_pressure;BME280_temperature;BME280_humidity;BME280_pressure;Samples;Min_cycle;Max_cycle;Signal;HPM_P1;HPM_P2
2023/06/07 02:08:28;;;;;;;6.50;2.20;;;;;;;;;;5001591;27;2079647;-66
2023/06/07 02:10:54;;;;;;;7.20;2.40;;;;;;;;;;5068153;28;20048;-66
2023/06/07 02:13:21;;;;;;;8.75;2.35;;;;;;;;;;5058014;28;20076;-66
2023/06/07 02:15:48;;;;;;;7.45;2.83;;;;;;;;;;5065284;28;20049;-66
2023/06/07 02:18:19;;;;;;;16.00;2.75;;;;;;;;;;5056468;28;20068;-66
2023/06/07 02:20:45;;;;;;;12.23;2.92;;;;;;;;;;5082575;28;20043;-66
2023/06/07 02:23:11;;;;;;;6.22;2.33;;;;;;;;;;5096500;28;20059;-66
2023/06/07 02:25:39;;;;;;;4.50;1.85;;;;;;;;;;5091664;27;20421;-66
2023/06/07 02:28:06;;;;;;;9.50;2.77;;;;;;;;;;5084547;28;20175;-66
2023/06/07 02:30:32;;;;;;;7.03;2.88;;;;;;;;;;5087363;28;20047;-67
2023/06/07 02:33:00;;;;;;;7.85;2.40;;;;;;;;;;5094841;28;20048;-66
2023/06/07 02:35:27;;;;;;;5.72;2.22;;;;;;;;;;5091589;28;20123;-66
2023/06/07 02:37:53;;;;;;;10.98;3.03;;;;;;;;;;5090605;28;20144;-66
2023/06/07 02:40:20;;;;;;;6.68;2.53;;;;;;;;;;5085978;27;21157;-66
2023/06/07 02:42:48;;;;;;;8.60;2.60;;;;;;;;;;5094765;28;20095;-68
2023/06/07 02:45:15;;;;;;;10.90;3.05;;;;;;;;;;5093166;28;20147;-68
2023/06/07 02:47:42;;;;;;;8.07;2.28;;;;;;;;;;5087353;28;20055;-68
2023/06/07 02:50:09;;;;;;;10.23;2.90;;;;;;;;;;5065177;28;20219;-68
2023/06/07 02:52:36;;;;;;;7.70;2.58;;;;;;;;;;5089706;28;20060;-67
2023/06/07 02:55:03;;;;;;;6.10;2.70;;;;;;;;;;5094469;28;20056;-68
2023/06/07 02:57:30;;;;;;;9.18;2.80;;;;;;;;;;5087179;28;20055;-68
2023/06/07 02:59:58;;;;;;;6.60;1.98;;;;;;;;;;5088572;28;20056;-68
2023/06/07 03:02:25;;;;;;;8.93;3.08;;;;;;;;;;5104383;27;20056;-68
2023/06/07 03:04:51;;;;;;;7.00;2.80;;;;;;;;;;5093779;28;20044;-68
2023/06/07 03:07:20;;;;;;;9.40;2.70;;;;;;;;;;5086845;27;20064;-68
2023/06/07 03:09:47;;;;;;;9.82;2.60;;;;;;;;;;5075149;28;20055;-68
2023/06/07 03:12:13;;;;;;;8.38;2.78;;;;;;;;;;5062719;28;20143;-67
2023/06/07 03:14:42;;;;;;;7.70;2.58;;;;;;;;;;5093714;28;20091;-67
2023/06/07 03:17:11;;;;;;;9.18;2.78;;;;;;;;;;5045972;28;20059;-68
2023/06/07 03:19:37;;;;;;;;;;;;;;;;;;5076875;28;20060;-66
2023/06/07 03:22:06;;;;;;;9.15;2.38;;;;;;;;;;5073305;28;19997;-67
2023/06/07 03:24:33;;;;;;;9.20;2.25;;;;;;;;;;5063667;28;20144;-67
2023/06/07 03:27:00;;;;;;;7.63;2.75;;;;;;;;;;5061529;28;20075;-67
2023/06/07 03:29:27;;;;;;;10.27;2.53;;;;;;;;;;5081375;28;20175;-66
2023/06/07 03:31:55;;;;;;;9.68;2.55;;;;;;;;;;5078211;28;20060;-66
2023/06/07 03:34:23;;;;;;;13.60;2.70;;;;;;;;;;5057380;28;20059;-66
2023/06/07 03:36:50;;;;;;;12.52;2.70;;;;;;;;;;5076453;28;20060;-66
2023/06/07 03:39:16;;;;;;;7.38;2.47;;;;;;;;;;5077464;28;20262;-66
2023/06/07 03:41:43;;;;;;;7.32;2.53;;;;;;;;;;5060502;28;20060;-67
2023/06/07 03:44:09;;;;;;;4.43;2.05;;;;;;;;;;5069916;28;20070;-67
2023/06/07 03:46:36;;;;;;;5.85;1.98;;;;;;;;;;5058515;28;20156;-66
2023/06/07 03:49:02;;;;;;;8.93;2.67;;;;;;;;;;5061330;28;20171;-66
2023/06/07 03:51:32;;;;;;;6.22;2.30;;;;;;;;;;5079007;28;20059;-66
2023/06/07 03:53:58;;;;;;;9.38;2.33;;;;;;;;;;5054871;28;20163;-66
2023/06/07 03:56:25;;;;;;;7.72;2.15;;;;;;;;;;5054085;28;20187;-66
2023/06/07 03:58:54;;;;;;;9.00;2.92;;;;;;;;;;5060318;28;20130;-66
2023/06/07 04:01:25;;;;;;;7.72;2.60;;;;;;;;;;5068113;28;20052;-66
2023/06/07 04:03:52;;;;;;;5.47;2.20;;;;;;;;;;5056833;28;20055;-68
2023/06/07 04:06:20;;;;;;;11.82;2.33;;;;;;;;;;5040278;28;20125;-66
2023/06/07 04:08:51;;;;;;;8.20;3.08;;;;;;;;;;5042094;28;20075;-67
2023/06/07 04:11:18;;;;;;;5.78;2.08;;;;;;;;;;5059984;28;20052;-66
2023/06/07 04:13:45;;;;;;;5.97;2.05;;;;;;;;;;5057870;28;20062;-67
2023/06/07 04:16:11;;;;;;;8.63;2.75;;;;;;;;;;5053651;28;20048;-66
2023/06/07 04:18:38;;;;;;;9.77;2.53;;;;;;;;;;5059168;28;20055;-67
2023/06/07 04:21:05;;;;;;;8.70;2.13;;;;;;;;;;5075315;28;20056;-66
2023/06/07 04:23:31;;;;;;;10.63;2.20;;;;;;;;;;5079581;28;20063;-68
2023/06/07 04:26:00;;;;;;;10.38;2.30;;;;;;;;;;5052116;28;20060;-67
2023/06/07 04:28:27;;;;;;;9.90;2.13;;;;;;;;;;5083624;28;20124;-66
2023/06/07 04:30:53;;;;;;;8.32;2.35;;;;;;;;;;5078673;28;20093;-66
2023/06/07 04:33:23;;;;;;;6.07;1.95;;;;;;;;;;5063907;28;20064;-68
2023/06/07 04:35:50;;;;;;;7.05;2.50;;;;;;;;;;5074197;28;20067;-68
2023/06/07 04:38:20;;;;;;;10.10;2.58;;;;;;;;;;5050016;28;20044;-66
2023/06/07 04:40:49;;;;;;;8.75;2.60;;;;;;;;;;5054460;28;20070;-67
2023/06/07 04:43:18;;;;;;;9.63;2.40;;;;;;;;;;5076615;28;20138;-66
2023/06/07 04:45:46;;;;;;;10.40;2.22;;;;;;;;;;5053752;28;20054;-67
2023/06/07 04:48:13;;;;;;;;;;;;;;;;;;5079134;28;20135;-66
2023/06/07 04:50:41;;;;;;;10.15;2.13;;;;;;;;;;5069657;28;20003;-68
2023/06/07 04:53:08;;;;;;;6.93;2.20;;;;;;;;;;5076033;28;20105;-68
2023/06/07 04:55:35;;;;;;;7.22;2.35;;;;;;;;;;5069070;28;20119;-66
2023/06/07 04:58:03;;;;;;;14.93;3.60;;;;;;;;;;5073206;28;20123;-67
2023/06/07 05:00:33;;;;;;;11.43;3.65;;;;;;;;;;5075716;28;20066;-66
2023/06/07 05:03:06;;;;;;;14.13;3.10;;;;;;;;;;5076314;28;20119;-66
2023/06/07 05:05:32;;;;;;;10.93;2.55;;;;;;;;;;5091906;28;20056;-67
2023/06/07 05:07:59;;;;;;;7.95;2.40;;;;;;;;;;5071332;28;20044;-68
2023/06/07 05:10:26;;;;;;;9.48;2.08;;;;;;;;;;5080257;28;20048;-66
2023/06/07 05:12:52;;;;;;;11.93;2.85;;;;;;;;;;5068451;28;20175;-66
2023/06/07 05:15:21;;;;;;;6.43;2.10;;;;;;;;;;5075589;28;20052;-65
2023/06/07 05:17:53;;;;;;;6.22;1.80;;;;;;;;;;5069849;28;20063;-66
2023/06/07 05:20:24;;;;;;;8.65;2.33;;;;;;;;;;5072617;28;20075;-66
2023/06/07 05:22:51;;;;;;;9.02;2.63;;;;;;;;;;5072849;28;20577;-66
2023/06/07 05:25:18;;;;;;;15.55;3.13;;;;;;;;;;5069135;28;20059;-66
2023/06/07 05:27:45;;;;;;;20.02;7.88;;;;;;;;;;5069726;28;20059;-65
2023/06/07 05:30:15;;;;;;;9.35;2.80;;;;;;;;;;5069014;28;20106;-66
2023/06/07 05:32:41;;;;;;;8.07;2.40;;;;;;;;;;5096487;28;20051;-66
2023/06/07 05:35:10;;;;;;;8.32;2.35;;;;;;;;;;5061734;28;20105;-66
2023/06/07 05:37:36;;;;;;;10.77;2.80;;;;;;;;;;5024872;28;20151;-66
2023/06/07 05:40:07;;;;;;;5.43;2.17;;;;;;;;;;5069201;28;20060;-66
2023/06/07 05:42:38;;;;;;;8.13;2.35;;;;;;;;;;5070462;28;20051;-66
2023/06/07 05:45:09;;;;;;;6.47;2.13;;;;;;;;;;5075956;28;20059;-66
2023/06/07 05:47:35;;;;;;;11.40;2.60;;;;;;;;;;5065115;27;20052;-66
2023/06/07 05:50:06;;;;;;;8.48;2.60;;;;;;;;;;5091411;27;20074;-66
2023/06/07 05:52:34;;;;;;;6.32;2.20;;;;;;;;;;5116765;27;20059;-67
2023/06/07 05:55:01;;;;;;;10.60;2.95;;;;;;;;;;5096115;28;20138;-66
2023/06/07 05:57:27;;;;;;;8.20;2.50;;;;;;;;;;5074359;28;20052;-66
2023/06/07 05:59:56;;;;;;;12.80;3.03;;;;;;;;;;5076478;28;20130;-68
2023/06/07 06:02:24;;;;;;;10.88;2.97;;;;;;;;;;5075465;28;20079;-66
2023/06/07 06:04:52;;;;;;;16.73;3.10;;;;;;;;;;5071223;28;20059;-66
2023/06/07 06:07:21;;;;;;;11.48;2.85;;;;;;;;;;5082704;28;20304;-66
2023/06/07 06:09:49;;;;;;;10.05;3.65;;;;;;;;;;5087718;28;20062;-66
2023/06/07 06:12:16;;;;;;;9.35;3.17;;;;;;;;;;5089966;28;20063;-66
2023/06/07 06:14:42;;;;;;;12.52;2.97;;;;;;;;;;5093533;28;20132;-66
2023/06/07 06:17:09;;;;;;;12.32;3.45;;;;;;;;;;5045466;28;20151;-65
2023/06/07 06:19:37;;;;;;;;;;;;;;;;;;5076002;28;20051;-66
2023/06/07 06:22:03;;;;;;;11.10;2.72;;;;;;;;;;5093947;28;20022;-66
2023/06/07 06:24:30;;;;;;;9.50;3.10;;;;;;;;;;5039230;28;20062;-66
2023/06/07 06:26:58;;;;;;;8.93;3.28;;;;;;;;;;5097379;28;20158;-66
2023/06/07 06:29:24;;;;;;;7.03;2.47;;;;;;;;;;5074307;28;20128;-66
2023/06/07 06:31:51;;;;;;;12.27;3.10;;;;;;;;;;5078358;28;20194;-66
2023/06/07 06:34:18;;;;;;;8.30;2.60;;;;;;;;;;5069745;28;20466;-69
2023/06/07 06:36:45;;;;;;;5.33;2.30;;;;;;;;;;5085534;28;20137;-68
2023/06/07 06:39:14;;;;;;;9.93;2.88;;;;;;;;;;5079793;28;20059;-68
2023/06/07 06:41:42;;;;;;;11.75;3.05;;;;;;;;;;5079459;28;20066;-68
2023/06/07 06:44:10;;;;;;;12.00;3.33;;;;;;;;;;5086087;28;20059;-70
2023/06/07 06:46:39;;;;;;;9.77;3.33;;;;;;;;;;5093381;28;20059;-66
2023/06/07 06:49:06;;;;;;;12.30;3.60;;;;;;;;;;5092310;28;20138;-66
2023/06/07 06:51:33;;;;;;;11.68;3.08;;;;;;;;;;5099199;28;20058;-66
2023/06/07 06:53:59;;;;;;;13.25;4.32;;;;;;;;;;5069527;28;20180;-66
2023/06/07 06:56:26;;;;;;;11.65;4.32;;;;;;;;;;5095814;28;20074;-68
2023/06/07 06:58:53;;;;;;;4.65;1.98;;;;;;;;;;5082709;28;20074;-68
2023/06/07 07:01:21;;;;;;;8.32;2.47;;;;;;;;;;5079061;28;20064;-68
2023/06/07 07:03:49;;;;;;;14.32;2.90;;;;;;;;;;5079451;28;20058;-68
2023/06/07 07:06:18;;;;;;;6.15;2.30;;;;;;;;;;5068727;28;20087;-69
2023/06/07 07:08:44;;;;;;;7.72;2.28;;;;;;;;;;5076884;28;20464;-68
2023/06/07 07:11:11;;;;;;;11.07;3.03;;;;;;;;;;5081724;28;20098;-69
2023/06/07 07:13:37;;;;;;;6.68;2.45;;;;;;;;;;5097064;28;20055;-68
2023/06/07 07:16:04;;;;;;;12.57;2.88;;;;;;;;;;5062951;28;20058;-69
2023/06/07 07:18:32;;;;;;;17.23;2.88;;;;;;;;;;5082027;28;20048;-68
2023/06/07 07:21:06;;;;;;;8.73;2.58;;;;;;;;;;5085142;28;20073;-68
2023/06/07 07:23:32;;;;;;;4.47;1.73;;;;;;;;;;5067064;28;20059;-69
2023/06/07 07:25:59;;;;;;;9.63;3.65;;;;;;;;;;5048196;28;20052;-67
2023/06/07 07:28:26;;;;;;;10.57;3.20;;;;;;;;;;5090599;28;21412;-66
2023/06/07 07:30:52;;;;;;;13.73;4.80;;;;;;;;;;5099139;28;20134;-67
2023/06/07 07:33:19;;;;;;;7.15;2.22;;;;;;;;;;5087673;28;20059;-67
2023/06/07 07:35:46;;;;;;;15.63;3.50;;;;;;;;;;5069288;28;20055;-66
2023/06/07 07:38:15;;;;;;;11.18;2.70;;;;;;;;;;5081826;28;20131;-67
2023/06/07 07:40:43;;;;;;;7.45;2.35;;;;;;;;;;5099107;28;20082;-66
2023/06/07 07:43:10;;;;;;;13.87;2.97;;;;;;;;;;5087992;28;20059;-67
2023/06/07 07:45:37;;;;;;;9.93;2.45;;;;;;;;;;5088982;28;20081;-67
2023/06/07 07:48:04;;;;;;;9.05;1.95;;;;;;;;;;5080070;27;20061;-67
2023/06/07 07:50:31;;;;;;;6.95;1.85;;;;;;;;;;5116350;27;20054;-66
2023/06/07 07:52:59;;;;;;;9.27;2.35;;;;;;;;;;5095256;28;20044;-65
2023/06/07 07:55:26;;;;;;;7.45;2.50;;;;;;;;;;5061902;28;20896;-66
2023/06/07 07:57:52;;;;;;;8.07;2.70;;;;;;;;;;5094890;28;20144;-66
2023/06/07 08:00:20;;;;;;;5.78;1.98;;;;;;;;;;5071725;28;20051;-66
2023/06/07 08:02:47;;;;;;;12.02;2.90;;;;;;;;;;5076969;28;20067;-68
2023/06/07 08:05:16;;;;;;;5.55;2.08;;;;;;;;;;5044026;28;20142;-66
2023/06/07 08:07:42;;;;;;;23.08;6.95;;;;;;;;;;5095127;28;20051;-68
2023/06/07 08:10:11;;;;;;;14.70;3.65;;;;;;;;;;5084928;28;20124;-67
2023/06/07 08:12:37;;;;;;;8.57;2.83;;;;;;;;;;5099475;28;20138;-66
2023/06/07 08:15:04;;;;;;;6.90;2.13;;;;;;;;;;5059214;28;20056;-66
2023/06/07 08:17:31;;;;;;;9.50;2.72;;;;;;;;;;5110461;27;20077;-65
2023/06/07 08:19:57;;;;;;;15.65;2.72;;;;;;;;;;5093602;28;20055;-69
2023/06/07 08:22:25;;;;;;;6.93;2.58;;;;;;;;;;5095745;28;20051;-68
2023/06/07 08:24:53;;;;;;;7.43;2.17;;;;;;;;;;5084032;28;20066;-66
2023/06/07 08:27:21;;;;;;;6.80;2.10;;;;;;;;;;5098813;28;20143;-66
2023/06/07 08:29:47;;;;;;;10.35;2.85;;;;;;;;;;5092845;28;20055;-66
2023/06/07 08:32:14;;;;;;;12.30;2.50;;;;;;;;;;5091065;27;20062;-66
2023/06/07 08:34:41;;;;;;;6.38;1.92;;;;;;;;;;5092449;27;20146;-66
2023/06/07 08:37:08;;;;;;;14.05;2.28;;;;;;;;;;5103643;28;20039;-66
2023/06/07 08:39:34;;;;;;;8.35;2.28;;;;;;;;;;5093372;28;20047;-66
2023/06/07 08:42:03;;;;;;;7.47;2.03;;;;;;;;;;5094174;28;20055;-68
2023/06/07 08:44:31;;;;;;;8.32;2.80;;;;;;;;;;5088779;28;20177;-69
2023/06/07 08:46:58;;;;;;;8.27;2.30;;;;;;;;;;5099224;28;20119;-66
2023/06/07 08:49:26;;;;;;;6.68;1.80;;;;;;;;;;5110087;27;20084;-67
2023/06/07 08:51:53;;;;;;;11.75;2.17;;;;;;;;;;5075362;28;20067;-67
2023/06/07 08:54:23;;;;;;;7.82;2.60;;;;;;;;;;5053702;28;20115;-67
2023/06/07 08:56:50;;;;;;;8.82;3.30;;;;;;;;;;5090991;28;20104;-67
2023/06/07 08:59:18;;;;;;;16.35;3.05;;;;;;;;;;5097600;28;20494;-66
2023/06/07 09:01:45;;;;;;;;;;;;;;;;;;5080602;28;20117;-66
2023/06/07 09:04:12;;;;;;;8.57;2.25;;;;;;;;;;5055882;28;19928;-67
2023/06/07 09:06:39;;;;;;;12.68;2.70;;;;;;;;;;5103825;27;20062;-67
2023/06/07 09:09:09;;;;;;;7.63;2.25;;;;;;;;;;5101397;27;20042;-67
2023/06/07 09:11:35;;;;;;;9.05;2.00;;;;;;;;;;5115056;27;20055;-67
2023/06/07 09:14:06;;;;;;;8.25;2.50;;;;;;;;;;5098962;27;20051;-68
2023/06/07 09:16:33;;;;;;;9.77;2.83;;;;;;;;;;5095683;27;20150;-67
2023/06/07 09:19:01;;;;;;;14.23;2.83;;;;;;;;;;5118903;27;20126;-67
2023/06/07 09:21:32;;;;;;;5.78;2.00;;;;;;;;;;5115028;27;20493;-68
2023/06/07 09:23:59;;;;;;;6.18;1.65;;;;;;;;;;5091155;27;20066;-66
2023/06/07 09:26:36;;;;;;;7.15;2.08;;;;;;;;;;5089569;27;21127;-67
2023/06/07 09:29:05;;;;;;;10.25;2.70;;;;;;;;;;5079071;28;20074;-67
2023/06/07 09:31:33;;;;;;;6.30;1.90;;;;;;;;;;5105944;27;20054;-67
2023/06/07 09:34:01;;;;;;;8.45;2.38;;;;;;;;;;5113620;27;20074;-67
2023/06/07 09:36:30;;;;;;;5.00;2.20;;;;;;;;;;5099996;27;20051;-67
2023/06/07 09:38:58;;;;;;;10.80;2.50;;;;;;;;;;5117318;27;20072;-68
2023/06/07 09:41:32;;;;;;;6.28;2.10;;;;;;;;;;5119365;27;20066;-69
2023/06/07 09:44:00;;;;;;;7.85;2.50;;;;;;;;;;5103478;27;20206;-69
2023/06/07 09:46:34;;;;;;;4.38;1.60;;;;;;;;;;5090446;27;20324;-67
2023/06/07 09:49:00;;;;;;;13.50;2.42;;;;;;;;;;5127674;27;20080;-67
2023/06/07 09:51:27;;;;;;;6.60;2.30;;;;;;;;;;5137083;27;20062;-67
2023/06/07 09:54:01;;;;;;;8.07;2.22;;;;;;;;;;5104878;27;20065;-67
2023/06/07 09:56:28;;;;;;;8.25;2.35;;;;;;;;;;5086816;27;20259;-67
2023/06/07 09:59:06;;;;;;;5.90;1.70;;;;;;;;;;5113601;27;20063;-67
2023/06/07 10:01:33;;;;;;;4.57;1.77;;;;;;;;;;5104865;27;20059;-66
2023/06/07 10:04:01;;;;;;;8.20;2.47;;;;;;;;;;5086911;27;20141;-66
2023/06/07 10:06:28;;;;;;;10.60;2.40;;;;;;;;;;5111462;28;20047;-67
2023/06/07 10:08:57;;;;;;;10.55;2.55;;;;;;;;;;5076857;28;20067;-67
2023/06/07 10:11:23;;;;;;;11.13;2.20;;;;;;;;;;5075449;28;20150;-67
2023/06/07 10:13:50;;;;;;;13.57;2.90;;;;;;;;;;5072119;28;20063;-67
2023/06/07 10:16:17;;;;;;;11.43;2.60;;;;;;;;;;5067223;28;20129;-67
2023/06/07 10:18:45;;;;;;;9.07;1.98;;;;;;;;;;5072063;28;20059;-67
2023/06/07 10:21:13;;;;;;;15.00;2.75;;;;;;;;;;5078313;28;20064;-68
2023/06/07 10:23:43;;;;;;;4.10;1.73;;;;;;;;;;5072249;28;20051;-69
2023/06/07 10:26:16;;;;;;;3.22;1.55;;;;;;;;;;5070372;28;20076;-67
2023/06/07 10:28:47;;;;;;;8.48;2.22;;;;;;;;;;5058089;28;20117;-67
2023/06/07 10:31:13;;;;;;;10.77;2.25;;;;;;;;;;5080133;28;20068;-66
2023/06/07 10:33:41;;;;;;;10.43;2.47;;;;;;;;;;5065553;28;20079;-70
2023/06/07 10:36:09;;;;;;;5.80;1.90;;;;;;;;;;5063399;28;20052;-70
2023/06/07 10:38:35;;;;;;;7.65;2.15;;;;;;;;;;5074513;28;20066;-68
2023/06/07 10:41:02;;;;;;;8.60;2.50;;;;;;;;;;5079684;28;20142;-69
2023/06/07 10:43:31;;;;;;;7.93;2.45;;;;;;;;;;5081202;28;20060;-69
2023/06/07 10:46:16;;;;;;;6.53;2.20;;;;;;;;;;5066526;28;20044;-68
2023/06/07 10:48:45;;;;;;;13.07;2.80;;;;;;;;;;5081255;28;20055;-69
2023/06/07 10:51:13;;;;;;;13.57;2.63;;;;;;;;;;5079634;28;20121;-69
2023/06/07 10:53:50;;;;;;;9.30;2.55;;;;;;;;;;5078848;28;20174;-69
2023/06/07 10:56:37;;;;;;;5.70;2.25;;;;;;;;;;5031759;28;20067;-69
2023/06/07 10:59:23;;;;;;;7.82;2.15;;;;;;;;;;5074034;28;20059;-68
2023/06/07 11:01:54;;;;;;;6.75;2.33;;;;;;;;;;5063193;28;20129;-68
2023/06/07 11:04:39;;;;;;;12.98;2.95;;;;;;;;;;5040654;28;20058;-69
2023/06/07 11:07:15;;;;;;;6.20;1.60;;;;;;;;;;5081717;28;20055;-68
2023/06/07 11:09:45;;;;;;;10.23;2.65;;;;;;;;;;5098942;28;20051;-68
2023/06/07 11:12:40;;;;;;;5.82;2.30;;;;;;;;;;5093943;28;20051;-69
2023/06/07 11:15:25;;;;;;;7.80;2.53;;;;;;;;;;5093969;28;20125;-69
2023/06/07 11:17:52;;;;;;;8.80;2.45;;;;;;;;;;5099213;28;20124;-68
2023/06/07 11:20:33;;;;;;;6.95;2.53;;;;;;;;;;5093434;27;20052;-70
2023/06/07 11:23:16;;;;;;;4.95;1.92;;;;;;;;;;5080337;28;20078;-68
2023/06/07 11:25:43;;;;;;;10.15;2.53;;;;;;;;;;5054889;28;20055;-68
2023/06/07 11:28:13;;;;;;;5.28;1.83;;;;;;;;;;5080820;28;20084;-69
2023/06/07 11:30:42;;;;;;;7.20;2.40;;;;;;;;;;5085063;27;20062;-69
2023/06/07 11:33:08;;;;;;;10.30;2.67;;;;;;;;;;5097685;28;20055;-68
2023/06/07 11:35:35;;;;;;;10.32;2.90;;;;;;;;;;5099368;28;20047;-68
2023/06/07 11:38:03;;;;;;;9.35;2.22;;;;;;;;;;5090942;28;20139;-69
2023/06/07 11:40:31;;;;;;;;;;;;;;;;;;5102955;28;20047;-69
2023/06/07 11:42:58;;;;;;;9.13;2.47;;;;;;;;;;5096600;28;20014;-69
2023/06/07 11:45:25;;;;;;;9.88;2.10;;;;;;;;;;5088091;27;20056;-67
2023/06/07 11:47:59;;;;;;;6.07;2.28;;;;;;;;;;5098764;27;20065;-67
2023/06/07 11:50:26;;;;;;;11.05;2.45;;;;;;;;;;5113465;27;20059;-67
2023/06/07 11:52:53;;;;;;;9.70;2.70;;;;;;;;;;5106275;27;20065;-67
2023/06/07 11:55:19;;;;;;;5.40;1.98;;;;;;;;;;5078887;28;20047;-67
2023/06/07 11:57:47;;;;;;;4.30;1.50;;;;;;;;;;5095851;28;20082;-67
2023/06/07 12:00:20;;;;;;;6.53;2.50;;;;;;;;;;5096404;28;20060;-67
2023/06/07 12:02:47;;;;;;;4.47;1.85;;;;;;;;;;5082533;28;20051;-67
2023/06/07 12:05:17;;;;;;;9.90;2.38;;;;;;;;;;5095978;28;20068;-67
2023/06/07 12:07:44;;;;;;;9.73;2.38;;;;;;;;;;5106783;27;20070;-67
2023/06/07 12:10:12;;;;;;;13.10;2.35;;;;;;;;;;5094819;27;20054;-68
2023/06/07 12:12:39;;;;;;;6.85;2.25;;;;;;;;;;5116100;27;20058;-67
2023/06/07 12:15:07;;;;;;;4.70;2.13;;;;;;;;;;5103431;27;20047;-67
2023/06/07 12:17:36;;;;;;;;;;;;;;;;;;5097202;27;20066;-68
2023/06/07 12:20:09;;;;;;;8.02;2.25;;;;;;;;;;5114121;27;20049;-67
2023/06/07 12:22:40;;;;;;;7.32;2.25;;;;;;;;;;5100259;27;20055;-66
2023/06/07 12:25:09;;;;;;;6.32;1.50;;;;;;;;;;5095099;27;20130;-70
2023/06/07 12:27:38;;;;;;;7.20;2.45;;;;;;;;;;5109434;27;20104;-69
2023/06/07 12:30:09;;;;;;;6.40;2.28;;;;;;;;;;5110116;27;20050;-66
2023/06/07 12:32:35;;;;;;;9.75;3.20;;;;;;;;;;5098944;28;20147;-66
2023/06/07 12:35:02;;;;;;;9.65;2.83;;;;;;;;;;5112527;27;20066;-66
2023/06/07 12:37:29;;;;;;;12.30;2.63;;;;;;;;;;5101664;27;20066;-70
2023/06/07 12:39:58;;;;;;;6.57;2.08;;;;;;;;;;5099149;27;20159;-69
2023/06/07 12:42:25;;;;;;;7.00;2.05;;;;;;;;;;5114516;27;20123;-67
2023/06/07 12:44:54;;;;;;;5.38;1.90;;;;;;;;;;5083289;27;20143;-67
2023/06/07 12:47:21;;;;;;;11.10;2.58;;;;;;;;;;5096840;27;20054;-68
2023/06/07 12:49:47;;;;;;;7.13;2.58;;;;;;;;;;5090310;27;20071;-67
2023/06/07 12:52:14;;;;;;;7.43;2.17;;;;;;;;;;5092411;27;20116;-70
2023/06/07 12:54:43;;;;;;;9.80;2.50;;;;;;;;;;5085352;27;20055;-70
2023/06/07 12:57:11;;;;;;;12.02;2.60;;;;;;;;;;5118905;27;20074;-69
2023/06/07 12:59:37;;;;;;;6.72;2.30;;;;;;;;;;5115140;27;20059;-69
2023/06/07 13:02:07;;;;;;;7.10;2.13;;;;;;;;;;5098465;27;20051;-70
2023/06/07 13:04:33;;;;;;;13.88;2.72;;;;;;;;;;5051882;28;20071;-67
2023/06/07 13:07:01;;;;;;;6.38;1.77;;;;;;;;;;5094456;27;20062;-67
2023/06/07 13:09:28;;;;;;;5.95;2.25;;;;;;;;;;5088574;28;20135;-67
2023/06/07 13:11:55;;;;;;;6.75;2.45;;;;;;;;;;5116645;27;20055;-67
2023/06/07 13:14:23;;;;;;;7.88;2.85;;;;;;;;;;5098959;27;20167;-67
2023/06/07 13:16:50;;;;;;;6.75;2.30;;;;;;;;;;5095014;27;20162;-67
2023/06/07 13:19:16;;;;;;;8.45;2.30;;;;;;;;;;5118189;27;20082;-67
2023/06/07 13:21:45;;;;;;;8.85;2.50;;;;;;;;;;5115396;27;20059;-67
2023/06/07 13:24:12;;;;;;;5.53;2.08;;;;;;;;;;5090872;27;20059;-68
2023/06/07 13:26:43;;;;;;;10.13;2.63;;;;;;;;;;5098331;27;20059;-67
2023/06/07 13:29:09;;;;;;;8.68;3.08;;;;;;;;;;5139101;27;20058;-67
2023/06/07 13:31:37;;;;;;;5.38;2.45;;;;;;;;;;5121426;27;20062;-67
2023/06/07 13:34:06;;;;;;;9.20;2.78;;;;;;;;;;5107582;27;20047;-68
2023/06/07 13:36:32;;;;;;;5.65;2.20;;;;;;;;;;5079607;27;20138;-68
2023/06/07 13:39:08;;;;;;;5.72;1.85;;;;;;;;;;5135877;27;20063;-69
2023/06/07 13:41:41;;;;;;;10.85;2.72;;;;;;;;;;5124057;27;20051;-69
2023/06/07 13:44:10;;;;;;;7.90;2.83;;;;;;;;;;5083667;27;20055;-69
2023/06/07 13:46:44;;;;;;;6.80;2.25;;;;;;;;;;5069659;27;20055;-68
2023/06/07 13:49:10;;;;;;;12.52;3.05;;;;;;;;;;5108042;27;20140;-67
2023/06/07 13:51:37;;;;;;;9.20;3.13;;;;;;;;;;5135933;27;20074;-68
2023/06/07 13:54:05;;;;;;;9.57;3.30;;;;;;;;;;5101627;28;20118;-69
2023/06/07 13:56:34;;;;;;;14.43;6.15;;;;;;;;;;5080112;27;20055;-69
2023/06/07 13:59:01;;;;;;;11.75;2.78;;;;;;;;;;5108389;27;20054;-68
2023/06/07 14:01:27;;;;;;;11.13;2.95;;;;;;;;;;5102868;27;20047;-68
2023/06/07 14:03:58;;;;;;;6.47;2.40;;;;;;;;;;5100138;28;20082;-67
2023/06/07 14:06:26;;;;;;;4.50;1.75;;;;;;;;;;5090207;27;20089;-67
2023/06/07 14:08:53;;;;;;;11.15;4.03;;;;;;;;;;5121545;27;20100;-68
2023/06/07 14:11:23;;;;;;;7.85;1.98;;;;;;;;;;5124214;28;20138;-68
2023/06/07 14:13:50;;;;;;;5.75;2.35;;;;;;;;;;5110203;28;20062;-67
2023/06/07 14:16:18;;;;;;;11.10;3.42;;;;;;;;;;5093995;27;20075;-68
2023/06/07 14:18:45;;;;;;;6.75;2.50;;;;;;;;;;5113046;27;20058;-68
2023/06/07 14:21:13;;;;;;;6.05;2.45;;;;;;;;;;5100601;28;20066;-68
2023/06/07 14:23:40;;;;;;;11.60;2.58;;;;;;;;;;5115241;27;20055;-68
2023/06/07 14:26:09;;;;;;;10.98;2.10;;;;;;;;;;5104876;28;20059;-69
2023/06/07 14:28:35;;;;;;;12.90;2.88;;;;;;;;;;5128051;27;20099;-68
2023/06/07 14:31:04;;;;;;;6.35;2.10;;;;;;;;;;5103419;28;20047;-68
2023/06/07 14:33:31;;;;;;;5.60;1.98;;;;;;;;;;5098487;28;20078;-68
2023/06/07 14:36:07;;;;;;;8.00;2.42;;;;;;;;;;5072286;27;20059;-69
2023/06/07 14:38:36;;;;;;;6.70;2.38;;;;;;;;;;5096678;28;20127;-69
2023/06/07 14:41:02;;;;;;;5.57;2.10;;;;;;;;;;5112252;27;20130;-69
2023/06/07 14:43:29;;;;;;;7.45;2.17;;;;;;;;;;5106803;27;20046;-68
2023/06/07 14:45:56;;;;;;;7.53;3.10;;;;;;;;;;5086883;28;20055;-68
2023/06/07 14:48:22;;;;;;;9.63;3.47;;;;;;;;;;5094883;28;20303;-68
2023/06/07 14:50:49;;;;;;;7.40;2.97;;;;;;;;;;5101484;28;20108;-69
2023/06/07 14:53:15;;;;;;;7.15;2.33;;;;;;;;;;5119903;28;20094;-69
2023/06/07 14:55:43;;;;;;;4.65;2.08;;;;;;;;;;5091308;28;20137;-68
2023/06/07 14:58:10;;;;;;;6.75;2.33;;;;;;;;;;5104741;27;20079;-67
2023/06/07 15:00:37;;;;;;;9.87;2.63;;;;;;;;;;5120729;27;20212;-68
2023/06/07 15:03:06;;;;;;;7.35;3.60;;;;;;;;;;5120549;27;20297;-68
2023/06/07 15:05:34;;;;;;;11.63;4.57;;;;;;;;;;5106193;27;20067;-68
2023/06/07 15:08:03;;;;;;;14.13;2.83;;;;;;;;;;5100316;28;20063;-69
2023/06/07 15:10:30;;;;;;;9.02;2.42;;;;;;;;;;5112534;27;20047;-69
2023/06/07 15:12:58;;;;;;;5.03;1.98;;;;;;;;;;5102242;28;20062;-68
2023/06/07 15:15:26;;;;;;;6.13;2.33;;;;;;;;;;5083782;27;20051;-69
2023/06/07 15:17:55;;;;;;;7.70;2.30;;;;;;;;;;5113139;27;20137;-68
2023/06/07 15:20:22;;;;;;;7.38;2.47;;;;;;;;;;5117746;27;20115;-69
2023/06/07 15:22:50;;;;;;;4.60;2.13;;;;;;;;;;5124523;27;20070;-68
2023/06/07 15:25:17;;;;;;;10.15;2.10;;;;;;;;;;5059056;27;20150;-69
2023/06/07 15:27:43;;;;;;;5.10;2.30;;;;;;;;;;5102506;27;20061;-68
2023/06/07 15:30:12;;;;;;;8.25;2.38;;;;;;;;;;5097025;27;20055;-70
2023/06/07 15:32:38;;;;;;;4.75;2.30;;;;;;;;;;5111589;27;20103;-69
2023/06/07 15:35:08;;;;;;;12.45;3.13;;;;;;;;;;5111685;27;20078;-68
2023/06/07 15:37:34;;;;;;;5.72;2.58;;;;;;;;;;5122068;27;20104;-68
2023/06/07 15:40:01;;;;;;;11.88;5.30;;;;;;;;;;5123209;27;20067;-68
2023/06/07 15:42:27;;;;;;;5.90;2.35;;;;;;;;;;5117053;27;20066;-69
2023/06/07 15:44:53;;;;;;;5.22;1.85;;;;;;;;;;5103994;27;20055;-68
2023/06/07 15:47:21;;;;;;;6.28;2.38;;;;;;;;;;5102818;27;20070;-68
2023/06/07 15:49:48;;;;;;;6.00;2.42;;;;;;;;;;5123393;27;20051;-69
2023/06/07 15:52:15;;;;;;;6.60;2.25;;;;;;;;;;5092516;27;20047;-69
2023/06/07 15:54:43;;;;;;;5.00;2.35;;;;;;;;;;5121314;27;20055;-69
2023/06/07 15:57:10;;;;;;;5.47;2.25;;;;;;;;;;5098218;27;20075;-70
2023/06/07 15:59:41;;;;;;;8.73;2.88;;;;;;;;;;5105728;27;20051;-69
2023/06/07 16:02:07;;;;;;;4.05;2.10;;;;;;;;;;5097142;27;20143;-69
2023/06/07 16:04:39;;;;;;;4.75;2.17;;;;;;;;;;5105390;27;20075;-69
2023/06/07 16:07:06;;;;;;;12.45;2.30;;;;;;;;;;5103974;27;20143;-70
2023/06/07 16:09:32;;;;;;;6.70;2.70;;;;;;;;;;5098268;27;20069;-70
2023/06/07 16:12:00;;;;;;;8.73;2.45;;;;;;;;;;5113681;27;20051;-71
2023/06/07 16:14:26;;;;;;;7.30;3.10;;;;;;;;;;5115297;27;20061;-70
2023/06/07 16:16:53;;;;;;;10.55;4.03;;;;;;;;;;5102586;27;20067;-69
2023/06/07 16:19:19;;;;;;;6.50;2.42;;;;;;;;;;5103879;27;20082;-70
2023/06/07 16:21:47;;;;;;;13.18;3.25;;;;;;;;;;5122301;27;20062;-69
2023/06/07 16:24:16;;;;;;;5.15;2.35;;;;;;;;;;5112171;27;20050;-70
2023/06/07 16:26:42;;;;;;;6.20;2.55;;;;;;;;;;5115552;27;20043;-69
2023/06/07 16:29:10;;;;;;;7.82;2.53;;;;;;;;;;5121223;27;20055;-70
2023/06/07 16:31:42;;;;;;;15.05;3.10;;;;;;;;;;5123412;27;20103;-70
2023/06/07 16:34:10;;;;;;;8.50;2.50;;;;;;;;;;5100037;27;20075;-71
2023/06/07 16:36:37;;;;;;;4.75;2.28;;;;;;;;;;5072656;27;20171;-70
2023/06/07 16:39:06;;;;;;;7.30;2.23;;;;;;;;;;5103857;27;20079;-69
2023/06/07 16:41:40;;;;;;;8.18;3.03;;;;;;;;;;5120283;27;20108;-69
2023/06/07 16:44:06;;;;;;;14.10;2.92;;;;;;;;;;5116211;27;20122;-69
2023/06/07 16:46:35;;;;;;;5.43;2.60;;;;;;;;;;5112801;27;20063;-70
2023/06/07 16:49:02;;;;;;;6.82;2.45;;;;;;;;;;5117277;27;20118;-69
2023/06/07 16:52:08;;;;;;;5.20;2.08;;;;;;;;;;5118406;27;20053;-72
2023/06/07 16:54:39;;;;;;;35.55;21.88;;;;;;;;;;5082687;28;20053;-70